SoundGuardian — WDI8675 — position and weather

sailwx.info

Track history (hours):
 
Tides and Currents Weather Stations Pressure Air Temp Water Temp Dewpoint Dewpoint Depression Visibility Wind Speed Wind Dir Waves Ship Positions

Oceanographic research ship SoundGuardian (United States)

Owner: King County Environmental Laboratory, Seattle, WA. More information available from US FCC via Universal Licensing System and Coast Guard Vessel Documentation Center.

Last reported at 2019-Sep-17 20:41 UTC. Time now 2019-Sep-20 09:38 UTC.
Position N 47°39' W 122°22'.

Length 13 m; draft 1 m.

Type: Other ship. MMSI: 367741020.

Date/timePositionNaut miles runAvg speedWind from/ knotsBaromVisibWave heightAir tempDewpointWater temp
2019-Sep-17 20:41N 47°39' W 122°22'1 3.3
2019-Sep-17 20:30N 47°40' W 122°22'1 2.4
2019-Sep-17 20:00N 47°40' W 122°24'611.9
2019-Sep-17 19:31N 47°34' W 122°26'1325.5
2019-Sep-17 19:00N 47°22' W 122°23'0 0.3
2019-Sep-17 18:30N 47°22' W 122°23'4 8.2
2019-Sep-17 18:00N 47°26' W 122°24'5 9.6
2019-Sep-17 17:30N 47°30' W 122°26'2 3.7
2019-Sep-17 17:00N 47°32' W 122°26'0 0.1
2019-Sep-17 16:30N 47°32' W 122°26'1 2.1
2019-Sep-17 16:00N 47°32' W 122°24'2 4.3
2019-Sep-17 15:30N 47°34' W 122°25'2 3.7
2019-Sep-17 15:01N 47°36' W 122°26'4 7.5
2019-Sep-17 14:30N 47°40' W 122°26'2 4.5
2019-Sep-17 14:00N 47°40' W 122°23'1 0.1
2019-Sep-16 22:21N 47°39' W 122°22'2 4.6
2019-Sep-16 22:01N 47°40' W 122°24'0 0.6
2019-Sep-16 21:31N 47°40' W 122°24'510.4
2019-Sep-16 21:00N 47°35' W 122°22'3 5.4
2019-Sep-16 20:29N 47°33' W 122°20'0 0.6
2019-Sep-16 19:57N 47°33' W 122°20'2 3.4
2019-Sep-16 19:30N 47°34' W 122°21'1 1.0
2019-Sep-16 19:00N 47°35' W 122°21'2 3.3
2019-Sep-16 18:30N 47°36' W 122°21'1 1.6
2019-Sep-16 18:01N 47°37' W 122°22'4 8.6
2019-Sep-16 17:30N 47°40' W 122°27'510.2
2019-Sep-16 17:01N 47°45' W 122°26'0 0.1
2019-Sep-16 16:30N 47°45' W 122°26'0 0.0
2019-Sep-16 16:00N 47°45' W 122°26'2 4.1
2019-Sep-16 15:30N 47°47' W 122°25'4 8.2
2019-Sep-16 15:00N 47°43' W 122°23'3 5.7
2019-Sep-16 14:31N 47°40' W 122°24'1 2.6
2019-Sep-16 14:00N 47°39' W 122°22'  
2019-Sep-09 22:52N 47°39' W 122°22'1 2.3
2019-Sep-09 22:30N 47°39' W 122°21'1 1.1
2019-Sep-09 22:00N 47°39' W 122°20'3 5.7
2019-Sep-09 21:30N 47°39' W 122°16'0 0.2
2019-Sep-09 21:00N 47°39' W 122°16'0 0.5
2019-Sep-09 20:31N 47°39' W 122°16'1 2.1
2019-Sep-09 20:00N 47°39' W 122°17'611.5
2019-Sep-09 19:30N 47°33' W 122°15'1 1.4
2019-Sep-09 18:57N 47°34' W 122°15'3 5.8
2019-Sep-09 18:30N 47°37' W 122°15'2 3.2
2019-Sep-09 18:00N 47°38' W 122°16'3 5.1
2019-Sep-09 17:29N 47°41' W 122°15'4 8.2
2019-Sep-09 17:00N 47°45' W 122°16'4 7.5
2019-Sep-09 16:30N 47°41' W 122°14'4 7.3
2019-Sep-09 16:00N 47°39' W 122°18'2 3.2
2019-Sep-09 15:30N 47°38' W 122°20'1 2.2
2019-Sep-09 15:00N 47°39' W 122°21'2 4.0
2019-Sep-09 14:30N 47°40' W 122°24'2 3.1
2019-Sep-09 14:00N 47°39' W 122°22'  
Track history (hours):
 
Tides and Currents Weather Stations Pressure Air Temp Water Temp Dewpoint Dewpoint Depression Visibility Wind Speed Wind Dir Waves Ship Positions

Oceanographic research ship SoundGuardian (United States)

Owner: King County Environmental Laboratory, Seattle, WA. More information available from US FCC via Universal Licensing System and Coast Guard Vessel Documentation Center.

Last reported at 2019-Sep-17 20:41 UTC. Time now 2019-Sep-20 09:38 UTC.
Position N 47°39' W 122°22'.

Length 13 m; draft 1 m.

Type: Other ship. MMSI: 367741020.

Date/timePositionNaut miles runAvg speedWind from/ knotsBaromVisibWave heightAir tempDewpointWater temp
2019-Sep-17 20:41N 47°39' W 122°22'1 3.3
2019-Sep-17 20:30N 47°40' W 122°22'1 2.4
2019-Sep-17 20:00N 47°40' W 122°24'611.9
2019-Sep-17 19:31N 47°34' W 122°26'1325.5
2019-Sep-17 19:00N 47°22' W 122°23'0 0.3
2019-Sep-17 18:30N 47°22' W 122°23'4 8.2
2019-Sep-17 18:00N 47°26' W 122°24'5 9.6
2019-Sep-17 17:30N 47°30' W 122°26'2 3.7
2019-Sep-17 17:00N 47°32' W 122°26'0 0.1
2019-Sep-17 16:30N 47°32' W 122°26'1 2.1
2019-Sep-17 16:00N 47°32' W 122°24'2 4.3
2019-Sep-17 15:30N 47°34' W 122°25'2 3.7
2019-Sep-17 15:01N 47°36' W 122°26'4 7.5
2019-Sep-17 14:30N 47°40' W 122°26'2 4.5
2019-Sep-17 14:00N 47°40' W 122°23'1 0.1
2019-Sep-16 22:21N 47°39' W 122°22'2 4.6
2019-Sep-16 22:01N 47°40' W 122°24'0 0.6
2019-Sep-16 21:31N 47°40' W 122°24'510.4
2019-Sep-16 21:00N 47°35' W 122°22'3 5.4
2019-Sep-16 20:29N 47°33' W 122°20'0 0.6
2019-Sep-16 19:57N 47°33' W 122°20'2 3.4
2019-Sep-16 19:30N 47°34' W 122°21'1 1.0
2019-Sep-16 19:00N 47°35' W 122°21'2 3.3
2019-Sep-16 18:30N 47°36' W 122°21'1 1.6
2019-Sep-16 18:01N 47°37' W 122°22'4 8.6
2019-Sep-16 17:30N 47°40' W 122°27'510.2
2019-Sep-16 17:01N 47°45' W 122°26'0 0.1
2019-Sep-16 16:30N 47°45' W 122°26'0 0.0
2019-Sep-16 16:00N 47°45' W 122°26'2 4.1
2019-Sep-16 15:30N 47°47' W 122°25'4 8.2
2019-Sep-16 15:00N 47°43' W 122°23'3 5.7
2019-Sep-16 14:31N 47°40' W 122°24'1 2.6
2019-Sep-16 14:00N 47°39' W 122°22'  
2019-Sep-09 22:52N 47°39' W 122°22'1 2.3
2019-Sep-09 22:30N 47°39' W 122°21'1 1.1
2019-Sep-09 22:00N 47°39' W 122°20'3 5.7
2019-Sep-09 21:30N 47°39' W 122°16'0 0.2
2019-Sep-09 21:00N 47°39' W 122°16'0 0.5
2019-Sep-09 20:31N 47°39' W 122°16'1 2.1
2019-Sep-09 20:00N 47°39' W 122°17'611.5
2019-Sep-09 19:30N 47°33' W 122°15'1 1.4
2019-Sep-09 18:57N 47°34' W 122°15'3 5.8
2019-Sep-09 18:30N 47°37' W 122°15'2 3.2
2019-Sep-09 18:00N 47°38' W 122°16'3 5.1
2019-Sep-09 17:29N 47°41' W 122°15'4 8.2
2019-Sep-09 17:00N 47°45' W 122°16'4 7.5
2019-Sep-09 16:30N 47°41' W 122°14'4 7.3
2019-Sep-09 16:00N 47°39' W 122°18'2 3.2
2019-Sep-09 15:30N 47°38' W 122°20'1 2.2
2019-Sep-09 15:00N 47°39' W 122°21'2 4.0
2019-Sep-09 14:30N 47°40' W 122°24'2 3.1
2019-Sep-09 14:00N 47°39' W 122°22'  

Dump ship's entire track history